sensor_id;sensor_type;location;lat;lon;timestamp;temperature;humidity
68746;SHT31;66104;45.456;11.064;2023-03-01T00:02:02;7.59;47.46
68746;SHT31;66104;45.456;11.064;2023-03-01T00:04:39;7.55;47.60
68746;SHT31;66104;45.456;11.064;2023-03-01T00:07:15;7.50;47.69
68746;SHT31;66104;45.456;11.064;2023-03-01T00:09:52;7.49;47.82
68746;SHT31;66104;45.456;11.064;2023-03-01T00:12:28;7.47;47.83
68746;SHT31;66104;45.456;11.064;2023-03-01T00:15:08;7.46;47.83
68746;SHT31;66104;45.456;11.064;2023-03-01T00:17:45;7.43;47.76
68746;SHT31;66104;45.456;11.064;2023-03-01T00:20:22;7.40;47.96
68746;SHT31;66104;45.456;11.064;2023-03-01T00:23:00;7.40;48.10
68746;SHT31;66104;45.456;11.064;2023-03-01T00:25:42;7.44;48.08
68746;SHT31;66104;45.456;11.064;2023-03-01T00:28:19;7.46;48.07
68746;SHT31;66104;45.456;11.064;2023-03-01T00:30:56;7.48;48.13
68746;SHT31;66104;45.456;11.064;2023-03-01T00:33:37;7.51;48.23
68746;SHT31;66104;45.456;11.064;2023-03-01T00:36:13;7.52;48.25
68746;SHT31;66104;45.456;11.064;2023-03-01T00:38:51;7.47;48.07
68746;SHT31;66104;45.456;11.064;2023-03-01T00:41:28;7.41;48.36
68746;SHT31;66104;45.456;11.064;2023-03-01T00:44:06;7.39;48.74
68746;SHT31;66104;45.456;11.064;2023-03-01T00:46:43;7.33;49.07
68746;SHT31;66104;45.456;11.064;2023-03-01T00:49:23;7.26;49.26
68746;SHT31;66104;45.456;11.064;2023-03-01T00:52:00;7.22;49.47
68746;SHT31;66104;45.456;11.064;2023-03-01T00:54:38;7.19;49.60
68746;SHT31;66104;45.456;11.064;2023-03-01T00:57:14;7.17;49.69
68746;SHT31;66104;45.456;11.064;2023-03-01T00:59:51;7.13;49.88
68746;SHT31;66104;45.456;11.064;2023-03-01T01:02:28;7.07;50.17
68746;SHT31;66104;45.456;11.064;2023-03-01T01:05:06;7.04;50.28
68746;SHT31;66104;45.456;11.064;2023-03-01T01:07:44;7.01;50.43
68746;SHT31;66104;45.456;11.064;2023-03-01T01:10:21;6.93;50.63
68746;SHT31;66104;45.456;11.064;2023-03-01T01:12:57;6.87;50.80
68746;SHT31;66104;45.456;11.064;2023-03-01T01:15:34;6.82;50.80
68746;SHT31;66104;45.456;11.064;2023-03-01T01:18:10;6.76;51.02
68746;SHT31;66104;45.456;11.064;2023-03-01T01:20:47;6.69;51.18
68746;SHT31;66104;45.456;11.064;2023-03-01T01:23:24;6.61;51.40
68746;SHT31;66104;45.456;11.064;2023-03-01T01:26:04;6.61;51.41
68746;SHT31;66104;45.456;11.064;2023-03-01T01:28:42;6.56;51.52
68746;SHT31;66104;45.456;11.064;2023-03-01T01:31:19;6.51;51.72
68746;SHT31;66104;45.456;11.064;2023-03-01T01:33:58;6.43;51.79
68746;SHT31;66104;45.456;11.064;2023-03-01T01:36:38;6.36;51.94
68746;SHT31;66104;45.456;11.064;2023-03-01T01:39:14;6.27;52.05
68746;SHT31;66104;45.456;11.064;2023-03-01T01:41:52;6.21;52.10
68746;SHT31;66104;45.456;11.064;2023-03-01T01:44:29;6.09;52.32
68746;SHT31;66104;45.456;11.064;2023-03-01T01:47:07;5.98;52.50
68746;SHT31;66104;45.456;11.064;2023-03-01T01:49:51;5.87;52.69
68746;SHT31;66104;45.456;11.064;2023-03-01T01:52:29;5.76;52.93
68746;SHT31;66104;45.456;11.064;2023-03-01T01:55:10;5.66;53.26
68746;SHT31;66104;45.456;11.064;2023-03-01T01:57:51;5.57;53.55
68746;SHT31;66104;45.456;11.064;2023-03-01T02:00:35;5.51;53.83
68746;SHT31;66104;45.456;11.064;2023-03-01T02:03:14;5.48;53.98
68746;SHT31;66104;45.456;11.064;2023-03-01T02:05:55;5.45;54.20
68746;SHT31;66104;45.456;11.064;2023-03-01T02:08:36;5.43;54.32
68746;SHT31;66104;45.456;11.064;2023-03-01T02:11:18;5.42;54.44
68746;SHT31;66104;45.456;11.064;2023-03-01T02:13:55;5.41;54.58
68746;SHT31;66104;45.456;11.064;2023-03-01T02:16:32;5.40;54.63
68746;SHT31;66104;45.456;11.064;2023-03-01T02:19:08;5.39;54.72
68746;SHT31;66104;45.456;11.064;2023-03-01T02:21:58;5.34;54.79
68746;SHT31;66104;45.456;11.064;2023-03-01T02:24:52;5.25;54.94
68746;SHT31;66104;45.456;11.064;2023-03-01T02:27:49;5.16;55.17
68746;SHT31;66104;45.456;11.064;2023-03-01T02:30:35;5.10;55.32
68746;SHT31;66104;45.456;11.064;2023-03-01T02:33:32;5.05;55.54
68746;SHT31;66104;45.456;11.064;2023-03-01T02:36:14;5.00;55.74
68746;SHT31;66104;45.456;11.064;2023-03-01T02:38:56;4.93;55.96
68746;SHT31;66104;45.456;11.064;2023-03-01T02:41:38;4.89;56.09
68746;SHT31;66104;45.456;11.064;2023-03-01T02:44:18;4.88;56.20
68746;SHT31;66104;45.456;11.064;2023-03-01T02:46:55;4.89;56.21
68746;SHT31;66104;45.456;11.064;2023-03-01T02:49:36;4.87;56.34
68746;SHT31;66104;45.456;11.064;2023-03-01T02:55:17;4.92;56.39
68746;SHT31;66104;45.456;11.064;2023-03-01T02:57:54;4.93;56.41
68746;SHT31;66104;45.456;11.064;2023-03-01T03:00:37;4.91;56.44
68746;SHT31;66104;45.456;11.064;2023-03-01T03:03:17;4.91;56.55
68746;SHT31;66104;45.456;11.064;2023-03-01T03:05:56;4.92;56.60
68746;SHT31;66104;45.456;11.064;2023-03-01T03:08:32;4.93;56.62
68746;SHT31;66104;45.456;11.064;2023-03-01T03:11:10;4.94;56.63
68746;SHT31;66104;45.456;11.064;2023-03-01T03:13:49;4.95;56.72
68746;SHT31;66104;45.456;11.064;2023-03-01T03:16:26;4.97;56.78
68746;SHT31;66104;45.456;11.064;2023-03-01T03:19:03;4.97;56.87
68746;SHT31;66104;45.456;11.064;2023-03-01T03:21:39;4.99;56.91
68746;SHT31;66104;45.456;11.064;2023-03-01T03:24:19;5.02;56.90
68746;SHT31;66104;45.456;11.064;2023-03-01T03:26:58;5.05;56.94
68746;SHT31;66104;45.456;11.064;2023-03-01T03:29:36;5.05;56.98
68746;SHT31;66104;45.456;11.064;2023-03-01T03:32:13;5.04;57.02
68746;SHT31;66104;45.456;11.064;2023-03-01T03:34:50;5.02;57.11
68746;SHT31;66104;45.456;11.064;2023-03-01T03:37:27;5.00;57.18
68746;SHT31;66104;45.456;11.064;2023-03-01T03:40:21;5.02;57.26
68746;SHT31;66104;45.456;11.064;2023-03-01T03:42:58;5.06;57.22
68746;SHT31;66104;45.456;11.064;2023-03-01T03:45:35;5.08;57.33
68746;SHT31;66104;45.456;11.064;2023-03-01T03:48:12;5.08;57.42
68746;SHT31;66104;45.456;11.064;2023-03-01T03:50:50;5.06;57.61
68746;SHT31;66104;45.456;11.064;2023-03-01T03:53:28;5.06;57.77
68746;SHT31;66104;45.456;11.064;2023-03-01T03:56:07;5.07;57.83
68746;SHT31;66104;45.456;11.064;2023-03-01T03:58:46;5.07;57.81
68746;SHT31;66104;45.456;11.064;2023-03-01T04:01:23;5.08;57.79
68746;SHT31;66104;45.456;11.064;2023-03-01T04:04:00;5.08;57.86
68746;SHT31;66104;45.456;11.064;2023-03-01T04:06:37;5.09;57.87
68746;SHT31;66104;45.456;11.064;2023-03-01T04:09:14;5.14;57.76
68746;SHT31;66104;45.456;11.064;2023-03-01T04:11:51;5.15;57.76
68746;SHT31;66104;45.456;11.064;2023-03-01T04:14:27;5.18;57.76
68746;SHT31;66104;45.456;11.064;2023-03-01T04:17:04;5.21;57.75
68746;SHT31;66104;45.456;11.064;2023-03-01T04:19:41;5.24;57.84
68746;SHT31;66104;45.456;11.064;2023-03-01T04:22:20;5.25;57.85
68746;SHT31;66104;45.456;11.064;2023-03-01T04:24:57;5.29;57.83
68746;SHT31;66104;45.456;11.064;2023-03-01T04:27:35;5.31;57.95
68746;SHT31;66104;45.456;11.064;2023-03-01T04:30:14;5.34;57.94
68746;SHT31;66104;45.456;11.064;2023-03-01T04:32:54;5.35;58.00
68746;SHT31;66104;45.456;11.064;2023-03-01T04:35:31;5.34;58.04
68746;SHT31;66104;45.456;11.064;2023-03-01T04:38:09;5.34;58.03
68746;SHT31;66104;45.456;11.064;2023-03-01T04:40:46;5.36;58.11
68746;SHT31;66104;45.456;11.064;2023-03-01T04:43:23;5.40;58.10
68746;SHT31;66104;45.456;11.064;2023-03-01T04:46:01;5.44;58.10
68746;SHT31;66104;45.456;11.064;2023-03-01T04:48:43;5.47;58.15
68746;SHT31;66104;45.456;11.064;2023-03-01T04:51:20;5.51;58.18
68746;SHT31;66104;45.456;11.064;2023-03-01T04:53:58;5.54;58.15
68746;SHT31;66104;45.456;11.064;2023-03-01T04:56:37;5.57;58.16
68746;SHT31;66104;45.456;11.064;2023-03-01T04:59:14;5.60;58.09
68746;SHT31;66104;45.456;11.064;2023-03-01T05:01:52;5.62;58.06
68746;SHT31;66104;45.456;11.064;2023-03-01T05:04:30;5.64;58.04
68746;SHT31;66104;45.456;11.064;2023-03-01T05:07:07;5.67;58.10
68746;SHT31;66104;45.456;11.064;2023-03-01T05:09:48;5.66;58.11
68746;SHT31;66104;45.456;11.064;2023-03-01T05:12:25;5.68;58.12
68746;SHT31;66104;45.456;11.064;2023-03-01T05:15:02;5.67;58.18
68746;SHT31;66104;45.456;11.064;2023-03-01T05:17:43;5.66;58.27
68746;SHT31;66104;45.456;11.064;2023-03-01T05:20:20;5.65;58.34
68746;SHT31;66104;45.456;11.064;2023-03-01T05:22:58;5.63;58.49
68746;SHT31;66104;45.456;11.064;2023-03-01T05:25:34;5.63;58.65
68746;SHT31;66104;45.456;11.064;2023-03-01T05:28:11;5.63;58.71
68746;SHT31;66104;45.456;11.064;2023-03-01T05:30:49;5.65;58.74
68746;SHT31;66104;45.456;11.064;2023-03-01T05:33:26;5.68;58.69
68746;SHT31;66104;45.456;11.064;2023-03-01T05:36:08;5.68;58.66
68746;SHT31;66104;45.456;11.064;2023-03-01T05:38:47;5.68;58.87
68746;SHT31;66104;45.456;11.064;2023-03-01T05:41:25;5.64;59.10
68746;SHT31;66104;45.456;11.064;2023-03-01T05:44:03;5.61;59.09
68746;SHT31;66104;45.456;11.064;2023-03-01T05:46:46;5.62;59.04
68746;SHT31;66104;45.456;11.064;2023-03-01T05:49:22;5.62;59.18
68746;SHT31;66104;45.456;11.064;2023-03-01T05:51:59;5.61;59.24
68746;SHT31;66104;45.456;11.064;2023-03-01T05:54:37;5.59;59.32
68746;SHT31;66104;45.456;11.064;2023-03-01T05:57:15;5.58;59.31
68746;SHT31;66104;45.456;11.064;2023-03-01T05:59:51;5.58;59.28
68746;SHT31;66104;45.456;11.064;2023-03-01T06:02:28;5.57;59.28
68746;SHT31;66104;45.456;11.064;2023-03-01T06:05:10;5.54;59.24
68746;SHT31;66104;45.456;11.064;2023-03-01T06:07:50;5.54;59.21
68746;SHT31;66104;45.456;11.064;2023-03-01T06:10:30;5.55;59.25
68746;SHT31;66104;45.456;11.064;2023-03-01T06:13:07;5.57;59.30
68746;SHT31;66104;45.456;11.064;2023-03-01T06:15:44;5.56;59.25
68746;SHT31;66104;45.456;11.064;2023-03-01T06:18:21;5.58;59.36
68746;SHT31;66104;45.456;11.064;2023-03-01T06:20:58;5.58;59.36
68746;SHT31;66104;45.456;11.064;2023-03-01T06:23:36;5.60;59.34
68746;SHT31;66104;45.456;11.064;2023-03-01T06:26:13;5.62;59.37
68746;SHT31;66104;45.456;11.064;2023-03-01T06:28:50;5.64;59.42
68746;SHT31;66104;45.456;11.064;2023-03-01T06:31:27;5.67;59.41
68746;SHT31;66104;45.456;11.064;2023-03-01T06:34:04;5.71;59.49
68746;SHT31;66104;45.456;11.064;2023-03-01T06:36:42;5.74;59.59
68746;SHT31;66104;45.456;11.064;2023-03-01T06:39:21;5.80;59.54
68746;SHT31;66104;45.456;11.064;2023-03-01T06:41:58;5.82;59.40
68746;SHT31;66104;45.456;11.064;2023-03-01T06:44:37;5.85;59.33
68746;SHT31;66104;45.456;11.064;2023-03-01T06:47:14;5.89;59.43
68746;SHT31;66104;45.456;11.064;2023-03-01T06:49:50;5.92;59.49
68746;SHT31;66104;45.456;11.064;2023-03-01T06:52:28;5.93;59.15
68746;SHT31;66104;45.456;11.064;2023-03-01T06:55:06;5.95;59.10
68746;SHT31;66104;45.456;11.064;2023-03-01T06:57:45;6.00;59.25
68746;SHT31;66104;45.456;11.064;2023-03-01T07:00:27;6.03;59.51
68746;SHT31;66104;45.456;11.064;2023-03-01T07:03:07;6.09;59.33
68746;SHT31;66104;45.456;11.064;2023-03-01T07:05:46;6.15;59.30
68746;SHT31;66104;45.456;11.064;2023-03-01T07:08:25;6.20;59.92
68746;SHT31;66104;45.456;11.064;2023-03-01T07:11:02;6.21;60.79
68746;SHT31;66104;45.456;11.064;2023-03-01T07:13:40;6.21;60.97
68746;SHT31;66104;45.456;11.064;2023-03-01T07:16:16;6.24;61.08
68746;SHT31;66104;45.456;11.064;2023-03-01T07:18:56;6.25;61.30
68746;SHT31;66104;45.456;11.064;2023-03-01T07:21:37;6.28;61.33
68746;SHT31;66104;45.456;11.064;2023-03-01T07:24:14;6.30;61.40
68746;SHT31;66104;45.456;11.064;2023-03-01T07:26:51;6.33;61.67
68746;SHT31;66104;45.456;11.064;2023-03-01T07:29:28;6.34;61.88
68746;SHT31;66104;45.456;11.064;2023-03-01T07:32:06;6.35;61.98
68746;SHT31;66104;45.456;11.064;2023-03-01T07:34:46;6.38;61.88
68746;SHT31;66104;45.456;11.064;2023-03-01T07:37:25;6.44;61.68
68746;SHT31;66104;45.456;11.064;2023-03-01T07:40:03;6.50;61.41
68746;SHT31;66104;45.456;11.064;2023-03-01T07:42:47;6.57;61.27
68746;SHT31;66104;45.456;11.064;2023-03-01T07:45:30;6.66;60.95
68746;SHT31;66104;45.456;11.064;2023-03-01T07:48:07;6.74;60.63
68746;SHT31;66104;45.456;11.064;2023-03-01T07:50:44;6.84;60.22
68746;SHT31;66104;45.456;11.064;2023-03-01T07:53:21;6.90;59.83
68746;SHT31;66104;45.456;11.064;2023-03-01T07:56:04;6.98;59.56
68746;SHT31;66104;45.456;11.064;2023-03-01T07:58:47;7.06;59.34
68746;SHT31;66104;45.456;11.064;2023-03-01T08:01:24;7.11;59.22
68746;SHT31;66104;45.456;11.064;2023-03-01T08:04:01;7.18;58.97
68746;SHT31;66104;45.456;11.064;2023-03-01T08:06:38;7.23;58.68
68746;SHT31;66104;45.456;11.064;2023-03-01T08:09:16;7.32;58.77
68746;SHT31;66104;45.456;11.064;2023-03-01T08:11:55;7.39;59.69
68746;SHT31;66104;45.456;11.064;2023-03-01T08:14:34;7.40;59.63
68746;SHT31;66104;45.456;11.064;2023-03-01T08:17:24;7.40;59.29
68746;SHT31;66104;45.456;11.064;2023-03-01T08:20:00;7.45;58.81
68746;SHT31;66104;45.456;11.064;2023-03-01T08:22:43;7.50;59.03
68746;SHT31;66104;45.456;11.064;2023-03-01T08:25:20;7.55;59.24
68746;SHT31;66104;45.456;11.064;2023-03-01T08:28:05;7.64;59.06
68746;SHT31;66104;45.456;11.064;2023-03-01T08:30:43;7.77;58.62
68746;SHT31;66104;45.456;11.064;2023-03-01T08:33:19;7.86;58.27
68746;SHT31;66104;45.456;11.064;2023-03-01T08:36:03;7.89;58.16
68746;SHT31;66104;45.456;11.064;2023-03-01T08:38:41;7.92;58.10
68746;SHT31;66104;45.456;11.064;2023-03-01T08:41:20;7.95;58.00
68746;SHT31;66104;45.456;11.064;2023-03-01T08:43:57;7.96;58.08
68746;SHT31;66104;45.456;11.064;2023-03-01T08:46:35;7.99;58.10
68746;SHT31;66104;45.456;11.064;2023-03-01T08:49:15;8.02;57.78
68746;SHT31;66104;45.456;11.064;2023-03-01T08:51:56;8.05;57.62
68746;SHT31;66104;45.456;11.064;2023-03-01T08:54:33;8.08;57.68
68746;SHT31;66104;45.456;11.064;2023-03-01T08:57:12;8.12;57.61
68746;SHT31;66104;45.456;11.064;2023-03-01T08:59:49;8.17;57.63
68746;SHT31;66104;45.456;11.064;2023-03-01T09:02:28;8.21;57.50
68746;SHT31;66104;45.456;11.064;2023-03-01T09:05:06;8.24;57.41
68746;SHT31;66104;45.456;11.064;2023-03-01T09:07:50;8.26;57.49
68746;SHT31;66104;45.456;11.064;2023-03-01T09:10:28;8.26;57.28
68746;SHT31;66104;45.456;11.064;2023-03-01T09:13:08;8.25;56.92
68746;SHT31;66104;45.456;11.064;2023-03-01T09:15:46;8.26;56.78
68746;SHT31;66104;45.456;11.064;2023-03-01T09:18:23;8.28;57.18
68746;SHT31;66104;45.456;11.064;2023-03-01T09:21:03;8.29;57.13
68746;SHT31;66104;45.456;11.064;2023-03-01T09:23:43;8.32;56.80
68746;SHT31;66104;45.456;11.064;2023-03-01T09:26:21;8.35;56.73
68746;SHT31;66104;45.456;11.064;2023-03-01T09:28:58;8.38;56.49
68746;SHT31;66104;45.456;11.064;2023-03-01T09:31:36;8.43;56.32
68746;SHT31;66104;45.456;11.064;2023-03-01T09:34:14;8.47;55.91
68746;SHT31;66104;45.456;11.064;2023-03-01T09:36:52;8.52;55.96
68746;SHT31;66104;45.456;11.064;2023-03-01T09:39:31;8.57;55.90
68746;SHT31;66104;45.456;11.064;2023-03-01T09:42:10;8.61;55.61
68746;SHT31;66104;45.456;11.064;2023-03-01T09:44:49;8.64;55.67
68746;SHT31;66104;45.456;11.064;2023-03-01T09:47:36;8.69;55.58
68746;SHT31;66104;45.456;11.064;2023-03-01T09:50:16;8.72;55.33
68746;SHT31;66104;45.456;11.064;2023-03-01T09:53:04;8.77;55.33
68746;SHT31;66104;45.456;11.064;2023-03-01T09:55:48;8.83;54.81
68746;SHT31;66104;45.456;11.064;2023-03-01T09:58:34;8.88;54.01
68746;SHT31;66104;45.456;11.064;2023-03-01T10:04:32;8.98;52.99
68746;SHT31;66104;45.456;11.064;2023-03-01T10:07:25;9.02;52.91
68746;SHT31;66104;45.456;11.064;2023-03-01T10:10:23;9.06;52.90
68746;SHT31;66104;45.456;11.064;2023-03-01T10:13:08;9.11;52.72
68746;SHT31;66104;45.456;11.064;2023-03-01T10:15:56;9.15;52.44
68746;SHT31;66104;45.456;11.064;2023-03-01T10:18:41;9.18;52.34
68746;SHT31;66104;45.456;11.064;2023-03-01T10:21:25;9.23;52.01
68746;SHT31;66104;45.456;11.064;2023-03-01T10:24:14;9.27;51.80
68746;SHT31;66104;45.456;11.064;2023-03-01T10:26:55;9.31;51.38
68746;SHT31;66104;45.456;11.064;2023-03-01T10:29:42;9.38;51.14
68746;SHT31;66104;45.456;11.064;2023-03-01T10:32:37;9.43;50.95
68746;SHT31;66104;45.456;11.064;2023-03-01T10:35:20;9.52;50.49
68746;SHT31;66104;45.456;11.064;2023-03-01T10:38:05;9.58;50.40
68746;SHT31;66104;45.456;11.064;2023-03-01T10:43:43;9.69;50.95
68746;SHT31;66104;45.456;11.064;2023-03-01T10:46:24;9.73;50.95
68746;SHT31;66104;45.456;11.064;2023-03-01T10:49:12;9.75;50.75
68746;SHT31;66104;45.456;11.064;2023-03-01T10:51:55;9.79;50.64
68746;SHT31;66104;45.456;11.064;2023-03-01T10:54:53;9.85;50.87
68746;SHT31;66104;45.456;11.064;2023-03-01T10:57:34;9.88;50.97
68746;SHT31;66104;45.456;11.064;2023-03-01T11:03:16;10.08;49.81
68746;SHT31;66104;45.456;11.064;2023-03-01T11:06:20;10.18;49.27
68746;SHT31;66104;45.456;11.064;2023-03-01T11:08:56;10.26;49.28
68746;SHT31;66104;45.456;11.064;2023-03-01T11:11:53;10.29;49.07
68746;SHT31;66104;45.456;11.064;2023-03-01T11:14:33;10.31;48.53
68746;SHT31;66104;45.456;11.064;2023-03-01T11:17:18;10.31;48.76
68746;SHT31;66104;45.456;11.064;2023-03-01T11:20:15;10.32;48.65
68746;SHT31;66104;45.456;11.064;2023-03-01T11:23:02;10.33;48.61
68746;SHT31;66104;45.456;11.064;2023-03-01T11:25:47;10.35;48.59
68746;SHT31;66104;45.456;11.064;2023-03-01T11:28:31;10.36;48.42
68746;SHT31;66104;45.456;11.064;2023-03-01T11:31:12;10.35;47.98
68746;SHT31;66104;45.456;11.064;2023-03-01T11:33:51;10.32;47.94
68746;SHT31;66104;45.456;11.064;2023-03-01T11:36:34;10.28;47.82
68746;SHT31;66104;45.456;11.064;2023-03-01T11:39:19;10.24;48.01
68746;SHT31;66104;45.456;11.064;2023-03-01T11:42:06;10.23;48.36
68746;SHT31;66104;45.456;11.064;2023-03-01T11:44:52;10.22;48.98
68746;SHT31;66104;45.456;11.064;2023-03-01T11:50:57;10.27;51.53
68746;SHT31;66104;45.456;11.064;2023-03-01T11:53:49;10.25;51.73
68746;SHT31;66104;45.456;11.064;2023-03-01T11:56:40;10.25;52.42
68746;SHT31;66104;45.456;11.064;2023-03-01T12:02:59;10.24;53.37
68746;SHT31;66104;45.456;11.064;2023-03-01T12:06:20;10.20;53.76
68746;SHT31;66104;45.456;11.064;2023-03-01T12:09:22;10.14;53.17
68746;SHT31;66104;45.456;11.064;2023-03-01T12:12:27;10.10;52.70
68746;SHT31;66104;45.456;11.064;2023-03-01T12:15:32;10.06;53.02
68746;SHT31;66104;45.456;11.064;2023-03-01T12:21:49;10.03;55.79
68746;SHT31;66104;45.456;11.064;2023-03-01T12:34:54;9.89;57.87
68746;SHT31;66104;45.456;11.064;2023-03-01T12:37:52;9.86;57.94
68746;SHT31;66104;45.456;11.064;2023-03-01T12:40:43;9.85;58.40
68746;SHT31;66104;45.456;11.064;2023-03-01T12:43:39;9.82;58.68
68746;SHT31;66104;45.456;11.064;2023-03-01T12:46:32;9.82;57.66
68746;SHT31;66104;45.456;11.064;2023-03-01T12:49:26;9.83;57.95
68746;SHT31;66104;45.456;11.064;2023-03-01T12:52:13;9.83;57.70
68746;SHT31;66104;45.456;11.064;2023-03-01T12:54:55;9.86;57.42
68746;SHT31;66104;45.456;11.064;2023-03-01T12:57:39;9.89;57.35
68746;SHT31;66104;45.456;11.064;2023-03-01T13:00:26;9.93;57.83
68746;SHT31;66104;45.456;11.064;2023-03-01T13:03:12;9.98;57.24
68746;SHT31;66104;45.456;11.064;2023-03-01T13:06:07;10.02;56.50
68746;SHT31;66104;45.456;11.064;2023-03-01T13:08:50;10.07;56.75
68746;SHT31;66104;45.456;11.064;2023-03-01T13:11:36;10.10;55.57
68746;SHT31;66104;45.456;11.064;2023-03-01T13:17:39;10.15;54.98
68746;SHT31;66104;45.456;11.064;2023-03-01T13:20:22;10.17;54.37
68746;SHT31;66104;45.456;11.064;2023-03-01T13:23:06;10.19;54.37
68746;SHT31;66104;45.456;11.064;2023-03-01T13:26:04;10.20;54.26
68746;SHT31;66104;45.456;11.064;2023-03-01T13:28:52;10.23;53.65
68746;SHT31;66104;45.456;11.064;2023-03-01T13:34:42;10.30;53.05
68746;SHT31;66104;45.456;11.064;2023-03-01T13:37:36;10.34;53.22
68746;SHT31;66104;45.456;11.064;2023-03-01T13:43:33;10.36;50.74
68746;SHT31;66104;45.456;11.064;2023-03-01T13:46:16;10.35;50.97
68746;SHT31;66104;45.456;11.064;2023-03-01T13:48:56;10.34;51.23
68746;SHT31;66104;45.456;11.064;2023-03-01T13:51:34;10.32;51.00
68746;SHT31;66104;45.456;11.064;2023-03-01T13:54:11;10.29;51.47
68746;SHT31;66104;45.456;11.064;2023-03-01T13:56:55;10.26;51.74
68746;SHT31;66104;45.456;11.064;2023-03-01T13:59:32;10.23;51.75
68746;SHT31;66104;45.456;11.064;2023-03-01T14:02:19;10.15;52.38
68746;SHT31;66104;45.456;11.064;2023-03-01T14:04:58;10.10;53.29
68746;SHT31;66104;45.456;11.064;2023-03-01T14:07:40;10.01;54.56
68746;SHT31;66104;45.456;11.064;2023-03-01T14:10:24;9.94;54.96
68746;SHT31;66104;45.456;11.064;2023-03-01T14:13:14;9.87;55.40
68746;SHT31;66104;45.456;11.064;2023-03-01T14:16:09;9.81;56.01
68746;SHT31;66104;45.456;11.064;2023-03-01T14:18:55;9.73;56.94
68746;SHT31;66104;45.456;11.064;2023-03-01T14:22:00;9.64;58.20
68746;SHT31;66104;45.456;11.064;2023-03-01T14:24:49;9.54;58.73
68746;SHT31;66104;45.456;11.064;2023-03-01T14:27:30;9.40;59.63
68746;SHT31;66104;45.456;11.064;2023-03-01T14:30:14;9.27;60.74
68746;SHT31;66104;45.456;11.064;2023-03-01T14:32:55;9.15;61.92
68746;SHT31;66104;45.456;11.064;2023-03-01T14:35:34;9.03;62.34
68746;SHT31;66104;45.456;11.064;2023-03-01T14:38:19;8.95;63.73
68746;SHT31;66104;45.456;11.064;2023-03-01T14:41:00;8.86;64.09
68746;SHT31;66104;45.456;11.064;2023-03-01T14:43:39;8.82;64.04
68746;SHT31;66104;45.456;11.064;2023-03-01T14:46:23;8.82;64.68
68746;SHT31;66104;45.456;11.064;2023-03-01T14:49:05;8.85;64.39
68746;SHT31;66104;45.456;11.064;2023-03-01T14:51:50;8.86;63.88
68746;SHT31;66104;45.456;11.064;2023-03-01T14:54:37;8.88;63.62
68746;SHT31;66104;45.456;11.064;2023-03-01T14:57:18;8.87;63.93
68746;SHT31;66104;45.456;11.064;2023-03-01T14:59:57;8.86;64.38
68746;SHT31;66104;45.456;11.064;2023-03-01T15:02:37;8.86;64.88
68746;SHT31;66104;45.456;11.064;2023-03-01T15:05:14;8.85;65.24
68746;SHT31;66104;45.456;11.064;2023-03-01T15:07:55;8.83;65.39
68746;SHT31;66104;45.456;11.064;2023-03-01T15:10:35;8.83;65.13
68746;SHT31;66104;45.456;11.064;2023-03-01T15:13:12;8.84;65.09
68746;SHT31;66104;45.456;11.064;2023-03-01T15:15:59;8.85;65.44
68746;SHT31;66104;45.456;11.064;2023-03-01T15:18:52;8.88;65.48
68746;SHT31;66104;45.456;11.064;2023-03-01T15:21:33;8.93;65.79
68746;SHT31;66104;45.456;11.064;2023-03-01T15:24:22;9.00;65.78
68746;SHT31;66104;45.456;11.064;2023-03-01T15:27:02;9.06;66.26
68746;SHT31;66104;45.456;11.064;2023-03-01T15:29:48;9.10;66.18
68746;SHT31;66104;45.456;11.064;2023-03-01T15:32:29;9.13;66.28
68746;SHT31;66104;45.456;11.064;2023-03-01T15:41:24;9.02;66.90
68746;SHT31;66104;45.456;11.064;2023-03-01T15:44:14;8.96;66.91
68746;SHT31;66104;45.456;11.064;2023-03-01T15:47:21;8.88;67.32
68746;SHT31;66104;45.456;11.064;2023-03-01T15:50:00;8.82;67.75
68746;SHT31;66104;45.456;11.064;2023-03-01T15:52:43;8.77;68.09
68746;SHT31;66104;45.456;11.064;2023-03-01T15:55:20;8.72;68.50
68746;SHT31;66104;45.456;11.064;2023-03-01T15:58:00;8.70;68.98
68746;SHT31;66104;45.456;11.064;2023-03-01T16:00:43;8.68;69.48
68746;SHT31;66104;45.456;11.064;2023-03-01T16:03:30;8.68;69.60
68746;SHT31;66104;45.456;11.064;2023-03-01T16:06:07;8.69;70.09
68746;SHT31;66104;45.456;11.064;2023-03-01T16:08:45;8.69;70.65
68746;SHT31;66104;45.456;11.064;2023-03-01T16:11:21;8.65;71.15
68746;SHT31;66104;45.456;11.064;2023-03-01T16:13:57;8.59;71.42
68746;SHT31;66104;45.456;11.064;2023-03-01T16:16:34;8.54;71.39
68746;SHT31;66104;45.456;11.064;2023-03-01T16:19:11;8.50;71.78
68746;SHT31;66104;45.456;11.064;2023-03-01T16:21:47;8.43;72.12
68746;SHT31;66104;45.456;11.064;2023-03-01T16:24:24;8.34;72.35
68746;SHT31;66104;45.456;11.064;2023-03-01T16:27:01;8.28;72.60
68746;SHT31;66104;45.456;11.064;2023-03-01T16:29:39;8.27;72.77
68746;SHT31;66104;45.456;11.064;2023-03-01T16:32:16;8.27;72.97
68746;SHT31;66104;45.456;11.064;2023-03-01T16:34:52;8.25;73.06
68746;SHT31;66104;45.456;11.064;2023-03-01T16:37:28;8.24;72.80
68746;SHT31;66104;45.456;11.064;2023-03-01T16:40:14;8.24;72.75
68746;SHT31;66104;45.456;11.064;2023-03-01T16:42:53;8.20;72.71
68746;SHT31;66104;45.456;11.064;2023-03-01T16:45:33;8.16;73.03
68746;SHT31;66104;45.456;11.064;2023-03-01T16:48:13;8.11;73.37
68746;SHT31;66104;45.456;11.064;2023-03-01T16:50:57;8.10;73.42
68746;SHT31;66104;45.456;11.064;2023-03-01T16:53:34;8.10;73.47
68746;SHT31;66104;45.456;11.064;2023-03-01T16:56:11;8.11;73.60
68746;SHT31;66104;45.456;11.064;2023-03-01T16:58:49;8.14;73.51
68746;SHT31;66104;45.456;11.064;2023-03-01T17:01:29;8.14;72.82
68746;SHT31;66104;45.456;11.064;2023-03-01T17:04:11;8.14;71.41
68746;SHT31;66104;45.456;11.064;2023-03-01T17:06:48;8.10;70.38
68746;SHT31;66104;45.456;11.064;2023-03-01T17:09:25;8.08;71.29
68746;SHT31;66104;45.456;11.064;2023-03-01T17:12:05;8.06;70.73
68746;SHT31;66104;45.456;11.064;2023-03-01T17:14:43;8.01;70.98
68746;SHT31;66104;45.456;11.064;2023-03-01T17:17:20;7.96;70.71
68746;SHT31;66104;45.456;11.064;2023-03-01T17:19:56;7.94;71.52
68746;SHT31;66104;45.456;11.064;2023-03-01T17:22:33;7.94;71.16
68746;SHT31;66104;45.456;11.064;2023-03-01T17:25:11;7.94;70.94
68746;SHT31;66104;45.456;11.064;2023-03-01T17:27:47;7.93;71.58
68746;SHT31;66104;45.456;11.064;2023-03-01T17:30:23;7.89;71.93
68746;SHT31;66104;45.456;11.064;2023-03-01T17:33:00;7.80;72.46
68746;SHT31;66104;45.456;11.064;2023-03-01T17:35:37;7.77;72.75
68746;SHT31;66104;45.456;11.064;2023-03-01T17:38:15;7.75;72.00
68746;SHT31;66104;45.456;11.064;2023-03-01T17:40:51;7.72;71.50
68746;SHT31;66104;45.456;11.064;2023-03-01T17:43:28;7.71;71.84
68746;SHT31;66104;45.456;11.064;2023-03-01T17:46:05;7.65;71.98